Mukwonago, WI (53149)

4:46 AM CDT on March 28, 2015 (GMT -0500)
Lake Beulah-North (N9CXK) | | Change Station
CLOSE
Current Station
Personal Weather Station
Location: East Troy, WI
Elevation: 835 ft
Nearby Weather Stations

Elev 835 ft 42.84 °N, 88.39 °W | Updated 22 seconds ago

Clear
Clear
14.7 °F
Feels Like 15 °F
N
0.0
Wind Variable Wind from NNW
Gusts 0.0 mph

Today
High -- | Low -- °F
--% Chance of Precip.
Yesterday
High -- | Low -- °F
Precip. -- in
6:42 AM 7:14 PM
First Quarter, 61% visible
Pressure 30.24 in
Visibility 10.0 miles
Clouds Clear
Windchill 15 °F
Dew Point 8 °F
Humidity 76%
Rainfall 0.00 in
Snow Depth Not available.
UV 0 out of 12
Pollen 4.10 out of 12
Air Quality Not available.
Flu Activity Not available.
METAR KBUU 280935Z AUTO 00000KT 10SM CLR M11/M12 A3024 RMK AO2 T11131125

More Conditions Fewer Conditions

Pressure 30.24 in
Visibility 10.0 miles
Clouds Clear
Windchill 15 °F
Dew Point 8 °F
Humidity 76%
Rainfall 0.00 in
Snow Depth Not available.
UV 0 out of 12
Pollen 4.10 out of 12
Air Quality Not available.
Flu Activity Not available.
METAR KBUU 280935Z AUTO 00000KT 10SM CLR M11/M12 A3024 RMK AO2 T11131125

More Conditions Fewer Conditions

10-Day Weather Forecast

Almanac

Astronomy

Mar. 28, 2015 Rise Set
Actual Time
Civil Twilight
Nautical Twilight
Astronomical Twilight
Moon
Length of Visible Light
Length of Day
Tomorrow will be .
, % of the Moon is Illuminated

Today's Extremes

State Highs State Lows

Community

WunderPhotos

Upload Photos

1,808,939 photos uploaded!

WunderBlogs® & News

Nearby

Air Quality

  Air Quality AQ Index Pollutant
Not available.

Snow Depth

Station Depth Elevation

Earthquake Activity

City Distance Mag. Time & Date
Minimum magnitude displayed is 2.5.

Coastal Water Temperatures

Place Temperature

Stations

Nearby Weather Stations

Station Location Temp. Windchill Dew Point Humidity Wind Precip. Elev Updated Type